createdAt,value
2022-10-06T00:01:16.446Z,19.35
2022-10-06T00:02:19.988Z,19.40
2022-10-06T00:03:23.309Z,19.25
2022-10-06T00:04:26.292Z,17.58
2022-10-06T00:05:29.578Z,21.05
2022-10-06T00:06:33.599Z,14.85
2022-10-06T00:07:36.857Z,23.20
2022-10-06T00:08:41.614Z,20.60
2022-10-06T00:09:44.479Z,18.12
2022-10-06T00:10:47.313Z,20.08
2022-10-06T00:11:50.053Z,22.35
2022-10-06T00:12:52.885Z,18.33
2022-10-06T00:13:55.701Z,24.42
2022-10-06T00:14:58.540Z,21.83
2022-10-06T00:16:02.463Z,24.10
2022-10-06T00:17:05.578Z,21.42
2022-10-06T00:18:08.341Z,19.25
2022-10-06T00:19:11.143Z,27.30
2022-10-06T00:20:14.698Z,21.17
2022-10-06T00:21:17.887Z,25.92
2022-10-06T00:22:20.653Z,21.20
2022-10-06T00:23:23.592Z,22.77
2022-10-06T00:24:27.419Z,21.73
2022-10-06T00:25:30.255Z,23.02
2022-10-06T00:26:33.227Z,25.27
2022-10-06T00:27:38.935Z,20.10
2022-10-06T00:28:41.761Z,17.62
2022-10-06T00:29:44.711Z,20.55
2022-10-06T00:30:48.006Z,22.60
2022-10-06T00:31:50.815Z,17.27
2022-10-06T00:32:59.174Z,18.73
2022-10-06T00:34:02.086Z,27.87
2022-10-06T00:35:05.820Z,21.10
2022-10-06T00:36:09.098Z,17.52
2022-10-06T00:37:11.997Z,22.00
2022-10-06T00:38:17.097Z,19.73
2022-10-06T00:39:20.565Z,20.85
2022-10-06T00:40:23.845Z,19.15
2022-10-06T00:41:26.765Z,21.45
2022-10-06T00:42:32.637Z,16.35
2022-10-06T00:43:57.192Z,18.02
2022-10-06T00:45:06.698Z,20.02
2022-10-06T00:46:18.477Z,20.65
2022-10-06T00:47:25.093Z,17.65
2022-10-06T00:48:29.213Z,13.90
2022-10-06T00:49:37.547Z,18.12
2022-10-06T00:50:41.410Z,13.10
2022-10-06T00:51:48.478Z,15.48
2022-10-06T00:52:51.278Z,14.93
2022-10-06T00:53:53.978Z,13.85
2022-10-06T00:54:59.391Z,15.15
2022-10-06T00:56:02.299Z,16.25
2022-10-06T00:57:06.496Z,13.57
2022-10-06T00:58:11.288Z,16.02
2022-10-06T00:59:17.353Z,14.87
2022-10-06T01:00:20.849Z,15.85
2022-10-06T01:01:25.244Z,13.48
2022-10-06T01:02:43.003Z,14.48
2022-10-06T01:03:52.861Z,11.60
2022-10-06T01:05:00.952Z,11.43
2022-10-06T01:06:05.357Z,10.60
2022-10-06T01:07:08.837Z,12.40
2022-10-06T01:08:12.343Z,13.27
2022-10-06T01:10:25.187Z,8.82
2022-10-06T01:11:27.928Z,11.15
2022-10-06T01:12:33.631Z,12.23
2022-10-06T01:13:36.494Z,10.07
2022-10-06T01:14:40.420Z,8.48
2022-10-06T01:16:12.496Z,14.07
2022-10-06T01:17:29.406Z,10.43
2022-10-06T01:18:33.450Z,7.50
2022-10-06T01:19:46.391Z,10.77
2022-10-06T01:20:55.748Z,10.32
2022-10-06T01:22:05.035Z,9.50
2022-10-06T01:23:10.805Z,11.27
2022-10-06T01:24:13.775Z,7.87
2022-10-06T01:25:18.833Z,9.63
2022-10-06T01:26:24.828Z,8.38
2022-10-06T01:27:31.054Z,9.57
2022-10-06T01:28:34.417Z,7.85
2022-10-06T01:29:38.170Z,8.20
2022-10-06T01:30:52.225Z,10.30
2022-10-06T01:31:55.470Z,8.05
2022-10-06T01:32:58.589Z,6.22
2022-10-06T01:34:01.385Z,8.07
2022-10-06T01:35:05.273Z,11.90
2022-10-06T01:36:08.198Z,6.07
2022-10-06T01:37:11.081Z,10.30
2022-10-06T01:38:14.069Z,11.27
2022-10-06T01:39:16.911Z,10.18
2022-10-06T01:40:19.918Z,9.23
2022-10-06T01:41:22.840Z,5.03
2022-10-06T01:42:26.039Z,10.05
2022-10-06T01:43:28.824Z,5.40
2022-10-06T01:44:31.661Z,7.40
2022-10-06T01:45:34.415Z,8.60
2022-10-06T01:46:37.316Z,7.35
2022-10-06T01:47:40.114Z,6.40
2022-10-06T01:48:42.974Z,10.80
2022-10-06T01:49:45.740Z,7.82
2022-10-06T01:50:48.597Z,7.47
2022-10-06T01:51:51.384Z,9.63
2022-10-06T01:52:56.738Z,8.45
2022-10-06T01:53:59.706Z,5.82
2022-10-06T01:55:02.915Z,10.57
2022-10-06T01:56:06.114Z,9.57
2022-10-06T01:57:09.154Z,4.78
2022-10-06T01:58:12.625Z,7.00
2022-10-06T01:59:15.377Z,7.90
2022-10-06T02:00:18.628Z,8.80
2022-10-06T02:01:21.614Z,6.55
2022-10-06T02:02:24.474Z,4.75
2022-10-06T02:03:27.264Z,8.82
2022-10-06T02:04:30.240Z,4.25
2022-10-06T02:05:33.340Z,6.15
2022-10-06T02:06:36.283Z,8.18
2022-10-06T02:07:39.574Z,4.80
2022-10-06T02:08:42.534Z,8.35
2022-10-06T02:09:45.379Z,7.25
2022-10-06T02:10:48.172Z,7.53
2022-10-06T02:11:51.229Z,11.15
2022-10-06T02:12:54.569Z,6.10
2022-10-06T02:13:57.355Z,6.40
2022-10-06T02:15:00.072Z,10.40
2022-10-06T02:16:02.914Z,7.15
2022-10-06T02:17:06.841Z,7.95
2022-10-06T02:18:09.829Z,6.00
2022-10-06T02:19:12.801Z,5.35
2022-10-06T02:20:16.166Z,6.82
2022-10-06T02:21:21.335Z,5.37
2022-10-06T02:22:24.161Z,7.12
2022-10-06T02:23:27.468Z,7.55
2022-10-06T02:24:30.462Z,7.57
2022-10-06T02:25:33.301Z,9.15
2022-10-06T02:26:36.156Z,5.55
2022-10-06T02:27:39.820Z,7.43
2022-10-06T02:28:44.448Z,11.88
2022-10-06T02:29:49.387Z,7.32
2022-10-06T02:30:52.396Z,8.52
2022-10-06T02:31:55.986Z,6.97
2022-10-06T02:32:58.731Z,5.43
2022-10-06T02:34:02.533Z,7.28
2022-10-06T02:35:06.829Z,5.87
2022-10-06T02:36:14.703Z,8.30
2022-10-06T02:37:17.594Z,5.20
2022-10-06T02:38:20.381Z,5.93
2022-10-06T02:40:31.333Z,8.95
2022-10-06T02:41:34.261Z,4.43
2022-10-06T02:42:41.748Z,7.07
2022-10-06T02:43:44.772Z,8.32
2022-10-06T02:44:47.573Z,7.85
2022-10-06T02:45:58.584Z,5.40
2022-10-06T02:47:01.473Z,5.43
2022-10-06T02:48:04.559Z,7.07
2022-10-06T02:49:07.429Z,6.37
2022-10-06T02:50:10.657Z,4.28
2022-10-06T02:51:15.936Z,5.82
2022-10-06T02:52:18.755Z,5.55
2022-10-06T02:53:21.544Z,6.72
2022-10-06T02:54:24.241Z,5.05
2022-10-06T02:55:27.208Z,4.87
2022-10-06T02:56:29.973Z,4.03
2022-10-06T02:57:32.825Z,5.57
2022-10-06T02:58:35.738Z,5.82
2022-10-06T02:59:38.866Z,5.43
2022-10-06T03:00:41.669Z,5.82
2022-10-06T03:01:44.584Z,6.70
2022-10-06T03:02:47.576Z,6.43
2022-10-06T03:03:50.614Z,7.22
2022-10-06T03:04:53.347Z,5.68
2022-10-06T03:06:01.083Z,8.43
2022-10-06T03:07:04.228Z,6.72
2022-10-06T03:08:06.973Z,8.70
2022-10-06T03:09:10.529Z,2.92
2022-10-06T03:10:13.337Z,7.37
2022-10-06T03:11:16.699Z,5.35
2022-10-06T03:12:19.428Z,8.00
2022-10-06T03:13:22.213Z,6.18
2022-10-06T03:14:25.063Z,6.00
2022-10-06T03:15:28.630Z,4.53
2022-10-06T03:16:39.241Z,3.37
2022-10-06T03:17:42.007Z,4.57
2022-10-06T03:18:50.239Z,4.85
2022-10-06T03:19:53.017Z,7.43
2022-10-06T03:21:00.850Z,4.68
2022-10-06T03:22:04.779Z,5.07
2022-10-06T03:23:12.725Z,6.03
2022-10-06T03:24:16.700Z,3.80
2022-10-06T03:25:19.413Z,6.10
2022-10-06T03:26:27.314Z,8.40
2022-10-06T03:27:30.045Z,5.97
2022-10-06T03:28:33.726Z,4.37
2022-10-06T03:29:36.736Z,6.37
2022-10-06T03:30:39.500Z,4.47
2022-10-06T03:31:43.594Z,4.45
2022-10-06T03:32:46.533Z,4.95
2022-10-06T03:33:49.507Z,5.45
2022-10-06T03:34:53.543Z,5.37
2022-10-06T03:36:01.095Z,4.47
2022-10-06T03:37:04.072Z,3.95
2022-10-06T03:38:09.968Z,6.57
2022-10-06T03:39:13.768Z,4.97
2022-10-06T03:40:16.563Z,5.22
2022-10-06T03:41:25.305Z,5.80
2022-10-06T03:42:28.044Z,5.18
2022-10-06T03:43:30.887Z,5.55
2022-10-06T03:44:35.262Z,3.75
2022-10-06T03:45:38.135Z,5.28
2022-10-06T03:46:41.203Z,8.38
2022-10-06T03:47:43.925Z,4.87
2022-10-06T03:48:48.377Z,4.10
2022-10-06T03:49:51.105Z,5.57
2022-10-06T03:50:58.116Z,5.85
2022-10-06T03:52:00.878Z,3.55
2022-10-06T03:53:03.750Z,3.45
2022-10-06T03:54:10.951Z,5.10
2022-10-06T03:55:13.771Z,4.25
2022-10-06T03:56:18.694Z,5.80
2022-10-06T03:57:21.543Z,3.85
2022-10-06T03:58:24.335Z,4.28
2022-10-06T03:59:29.457Z,4.32
2022-10-06T04:00:32.287Z,3.62
2022-10-06T04:01:40.642Z,5.82
2022-10-06T04:02:43.396Z,4.57
2022-10-06T04:03:46.186Z,7.47
2022-10-06T04:04:48.919Z,4.87
2022-10-06T04:05:56.542Z,4.62
2022-10-06T04:06:59.332Z,3.05
2022-10-06T04:08:02.504Z,5.03
2022-10-06T04:09:12.561Z,3.10
2022-10-06T04:10:17.650Z,3.28
2022-10-06T04:11:29.299Z,4.90
2022-10-06T04:13:34.699Z,5.37
2022-10-06T04:14:37.524Z,4.40
2022-10-06T04:15:40.336Z,6.72
2022-10-06T04:16:45.968Z,6.12
2022-10-06T04:17:48.818Z,4.82
2022-10-06T04:18:54.325Z,6.37
2022-10-06T04:19:57.143Z,4.72
2022-10-06T04:21:00.626Z,3.45
2022-10-06T04:22:03.478Z,7.57
2022-10-06T04:23:06.763Z,4.65
2022-10-06T04:24:13.805Z,3.75
2022-10-06T04:25:19.644Z,4.03
2022-10-06T04:26:24.756Z,3.15
2022-10-06T04:27:27.694Z,4.68
2022-10-06T04:28:31.012Z,8.43
2022-10-06T04:29:33.977Z,4.82
2022-10-06T04:30:36.750Z,5.20
2022-10-06T04:31:41.276Z,5.00
2022-10-06T04:32:46.002Z,4.45
2022-10-06T04:33:52.169Z,5.85
2022-10-06T04:34:55.079Z,4.35
2022-10-06T04:36:03.275Z,4.05
2022-10-06T04:37:06.227Z,7.65
2022-10-06T04:38:09.672Z,5.20
2022-10-06T04:39:13.248Z,4.87
2022-10-06T04:40:16.514Z,5.65
2022-10-06T04:41:20.517Z,5.45
2022-10-06T04:42:23.604Z,4.75
2022-10-06T04:43:28.184Z,4.47
2022-10-06T04:44:31.078Z,4.53
2022-10-06T04:45:33.760Z,5.85
2022-10-06T04:46:44.914Z,4.57
2022-10-06T04:47:50.363Z,6.53
2022-10-06T04:48:54.840Z,4.70
2022-10-06T04:49:57.553Z,5.65
2022-10-06T04:51:03.895Z,3.45
2022-10-06T04:52:06.642Z,4.12
2022-10-06T04:53:09.494Z,6.32
2022-10-06T04:54:12.528Z,5.72
2022-10-06T04:55:15.339Z,2.37
2022-10-06T04:56:33.770Z,11.38
2022-10-06T04:57:36.539Z,2.95
2022-10-06T04:58:42.123Z,5.65
2022-10-06T05:00:08.887Z,4.82
2022-10-06T05:01:20.853Z,3.80
2022-10-06T05:02:23.729Z,3.62
2022-10-06T05:03:29.249Z,4.32
2022-10-06T05:04:31.985Z,4.70
2022-10-06T05:05:35.774Z,3.55
2022-10-06T05:06:41.441Z,5.25
2022-10-06T05:07:45.616Z,2.90
2022-10-06T05:09:02.864Z,4.18
2022-10-06T05:10:06.225Z,4.00
2022-10-06T05:11:15.139Z,4.25
2022-10-06T05:12:19.642Z,4.03
2022-10-06T05:13:22.371Z,5.60
2022-10-06T05:14:25.161Z,4.25
2022-10-06T05:15:28.451Z,4.43
2022-10-06T05:16:32.042Z,8.43
2022-10-06T05:17:34.788Z,10.82
2022-10-06T05:18:38.801Z,8.77
2022-10-06T05:19:41.494Z,3.62
2022-10-06T05:20:44.263Z,4.15
2022-10-06T05:21:47.016Z,4.07
2022-10-06T05:22:49.987Z,5.15
2022-10-06T05:23:53.235Z,2.45
2022-10-06T05:24:55.913Z,5.30
2022-10-06T05:25:59.069Z,3.37
2022-10-06T05:27:04.032Z,4.00
2022-10-06T05:28:06.824Z,5.55
2022-10-06T05:29:15.629Z,6.85
2022-10-06T05:30:19.811Z,5.45
2022-10-06T05:31:24.625Z,4.95
2022-10-06T05:32:27.577Z,6.20
2022-10-06T05:33:32.437Z,4.32
2022-10-06T05:34:35.244Z,7.35
2022-10-06T05:35:38.003Z,4.43
2022-10-06T05:36:40.994Z,3.83
2022-10-06T05:37:44.001Z,6.75
2022-10-06T05:38:47.841Z,2.62
2022-10-06T05:39:50.698Z,4.93
2022-10-06T05:41:13.688Z,7.32
2022-10-06T05:42:16.577Z,2.87
2022-10-06T05:43:19.341Z,3.95
2022-10-06T05:44:22.206Z,4.62
2022-10-06T05:45:24.989Z,5.37
2022-10-06T05:46:30.029Z,5.15
2022-10-06T05:47:32.841Z,6.35
2022-10-06T05:48:35.626Z,5.85
2022-10-06T05:49:38.452Z,2.58
2022-10-06T05:50:41.134Z,7.43
2022-10-06T05:51:44.038Z,5.45
2022-10-06T05:52:47.001Z,3.90
2022-10-06T05:53:50.056Z,6.55
2022-10-06T05:54:52.896Z,5.97
2022-10-06T05:56:09.869Z,4.57
2022-10-06T05:57:12.977Z,6.43
2022-10-06T05:58:18.470Z,4.85
2022-10-06T05:59:21.497Z,4.97
2022-10-06T06:00:24.292Z,4.03
2022-10-06T06:01:32.389Z,5.90
2022-10-06T06:02:35.302Z,4.43
2022-10-06T06:03:39.897Z,4.47
2022-10-06T06:04:42.861Z,7.93
2022-10-06T06:05:46.141Z,3.72
2022-10-06T06:06:49.037Z,3.85
2022-10-06T06:07:51.989Z,4.22
2022-10-06T06:09:08.958Z,6.60
2022-10-06T06:10:11.818Z,6.50
2022-10-06T06:11:15.077Z,6.90
2022-10-06T06:12:17.924Z,5.32
2022-10-06T06:13:24.189Z,7.62
2022-10-06T06:14:45.721Z,7.57
2022-10-06T06:16:00.786Z,3.70
2022-10-06T06:17:03.632Z,6.45
2022-10-06T06:18:06.638Z,3.40
2022-10-06T06:19:11.412Z,6.32
2022-10-06T06:20:14.229Z,5.28
2022-10-06T06:21:17.169Z,6.50
2022-10-06T06:22:21.333Z,7.30
2022-10-06T06:23:25.077Z,5.75
2022-10-06T06:24:27.817Z,4.70
2022-10-06T06:25:30.557Z,4.18
2022-10-06T06:26:39.571Z,3.08
2022-10-06T06:27:42.477Z,3.47
2022-10-06T06:28:46.698Z,3.03
2022-10-06T06:29:50.247Z,7.60
2022-10-06T06:31:20.346Z,4.43
2022-10-06T06:32:23.467Z,5.60
2022-10-06T06:33:26.207Z,8.95
2022-10-06T06:34:29.378Z,7.90
2022-10-06T06:35:32.167Z,6.70
2022-10-06T06:36:41.284Z,4.85
2022-10-06T06:37:45.275Z,3.22
2022-10-06T06:40:58.880Z,10.13
2022-10-06T06:42:02.824Z,3.85
2022-10-06T06:43:06.177Z,8.60
2022-10-06T06:44:11.721Z,4.37
2022-10-06T06:45:14.990Z,4.80
2022-10-06T06:46:20.383Z,8.50
2022-10-06T06:47:25.925Z,3.97
2022-10-06T06:48:30.568Z,4.20
2022-10-06T06:49:33.658Z,14.35
2022-10-06T06:50:37.749Z,4.43
2022-10-06T06:51:43.258Z,8.80
2022-10-06T06:52:46.561Z,4.28
2022-10-06T06:53:50.139Z,8.02
2022-10-06T06:54:52.909Z,12.82
2022-10-06T06:55:55.858Z,8.07
2022-10-06T06:56:59.096Z,4.68
2022-10-06T06:58:02.099Z,7.03
2022-10-06T06:59:10.777Z,5.47
2022-10-06T07:00:14.296Z,9.98
2022-10-06T07:01:24.871Z,5.35
2022-10-06T07:02:30.106Z,4.82
2022-10-06T07:03:55.949Z,5.68
2022-10-06T07:04:55.778Z,7.05
2022-10-06T07:06:10.250Z,7.05
2022-10-06T07:07:13.059Z,6.60
2022-10-06T07:08:20.698Z,5.18
2022-10-06T07:09:23.769Z,7.35
2022-10-06T07:10:28.317Z,6.90
2022-10-06T07:11:34.410Z,12.48
2022-10-06T07:12:37.338Z,13.38
2022-10-06T07:13:40.778Z,16.15
2022-10-06T07:15:03.586Z,17.25
2022-10-06T07:18:15.756Z,15.02
2022-10-06T07:19:39.628Z,11.75
2022-10-06T07:21:00.826Z,17.40
2022-10-06T07:22:27.086Z,12.80
2022-10-06T07:23:48.206Z,11.10
2022-10-06T07:25:11.778Z,9.15
2022-10-06T07:26:14.546Z,13.18
2022-10-06T07:27:17.256Z,13.70
2022-10-06T07:28:20.060Z,11.52
2022-10-06T07:29:22.778Z,8.32
2022-10-06T07:30:28.686Z,9.45
2022-10-06T07:31:33.703Z,10.52
2022-10-06T07:32:37.949Z,16.58
2022-10-06T07:33:41.106Z,9.60
2022-10-06T07:35:53.855Z,10.52
2022-10-06T07:36:59.667Z,12.55
2022-10-06T07:38:08.116Z,12.57
2022-10-06T07:39:10.825Z,10.27
2022-10-06T07:40:15.016Z,10.00
2022-10-06T07:41:20.044Z,11.07
2022-10-06T07:42:23.774Z,7.18
2022-10-06T07:43:26.365Z,6.45
2022-10-06T07:44:29.056Z,13.48
2022-10-06T07:45:46.579Z,9.50
2022-10-06T07:46:49.166Z,7.07
2022-10-06T07:47:58.846Z,6.32
2022-10-06T07:49:01.465Z,6.70
2022-10-06T07:50:06.969Z,6.85
2022-10-06T07:51:28.566Z,8.15
2022-10-06T07:52:31.342Z,10.25
2022-10-06T07:53:35.775Z,10.68
2022-10-06T07:54:38.396Z,5.40
2022-10-06T07:55:44.746Z,8.27
2022-10-06T07:56:47.377Z,6.45
2022-10-06T07:57:51.446Z,8.10
2022-10-06T07:58:54.175Z,6.68
2022-10-06T08:00:02.086Z,9.13
2022-10-06T08:01:08.466Z,5.22
2022-10-06T08:02:11.154Z,7.60
2022-10-06T08:03:18.365Z,5.43
2022-10-06T08:04:26.128Z,6.70
2022-10-06T08:05:33.357Z,6.37
2022-10-06T08:06:36.268Z,6.43
2022-10-06T08:07:38.853Z,6.70
2022-10-06T08:08:42.937Z,7.15
2022-10-06T08:09:45.485Z,5.82
2022-10-06T08:11:01.583Z,5.43
2022-10-06T08:12:24.616Z,5.05
2022-10-06T08:13:29.333Z,7.95
2022-10-06T08:14:31.936Z,4.25
2022-10-06T08:15:34.825Z,6.00
2022-10-06T08:16:37.635Z,6.00
2022-10-06T08:17:41.766Z,4.45
2022-10-06T08:18:52.765Z,5.90
2022-10-06T08:19:55.425Z,4.25
2022-10-06T08:20:58.903Z,7.22
2022-10-06T08:22:04.859Z,3.85
2022-10-06T08:23:09.065Z,7.95
2022-10-06T08:24:11.635Z,5.10
2022-10-06T08:25:20.629Z,7.18
2022-10-06T08:26:25.349Z,6.60
2022-10-06T08:27:29.255Z,4.97
2022-10-06T08:28:33.010Z,5.10
2022-10-06T08:29:36.285Z,4.32
2022-10-06T08:30:39.915Z,6.53
2022-10-06T08:31:42.517Z,4.37
2022-10-06T08:32:47.691Z,5.20
2022-10-06T08:33:56.266Z,5.20
2022-10-06T08:34:59.103Z,5.03
2022-10-06T08:36:08.827Z,3.20
2022-10-06T08:37:19.974Z,6.90
2022-10-06T08:38:23.215Z,4.10
2022-10-06T08:39:25.815Z,4.45
2022-10-06T08:40:29.574Z,5.60
2022-10-06T08:41:51.250Z,5.90
2022-10-06T08:42:58.385Z,6.82
2022-10-06T08:44:05.765Z,6.53
2022-10-06T08:45:14.846Z,5.68
2022-10-06T08:46:21.109Z,3.87
2022-10-06T08:47:33.784Z,5.87
2022-10-06T08:48:38.938Z,7.15
2022-10-06T08:49:44.925Z,4.97
2022-10-06T08:50:50.341Z,8.38
2022-10-06T08:52:08.873Z,6.70
2022-10-06T08:53:21.936Z,5.12
2022-10-06T08:54:51.986Z,6.07
2022-10-06T08:56:05.247Z,5.43
2022-10-06T08:57:22.586Z,3.85
2022-10-06T08:58:52.165Z,3.87
2022-10-06T08:59:55.107Z,6.05
2022-10-06T09:01:16.841Z,5.07
2022-10-06T09:02:25.987Z,5.85
2022-10-06T09:03:30.256Z,6.70
2022-10-06T09:04:34.430Z,7.30
2022-10-06T09:05:38.105Z,4.05
2022-10-06T09:06:52.210Z,6.57
2022-10-06T09:08:11.105Z,4.97
2022-10-06T09:09:41.976Z,5.07
2022-10-06T09:10:59.615Z,4.37
2022-10-06T09:12:07.027Z,10.80
2022-10-06T09:13:22.097Z,11.40
2022-10-06T09:14:37.707Z,4.62
2022-10-06T09:16:10.071Z,8.52
2022-10-06T09:17:19.176Z,6.57
2022-10-06T09:18:49.858Z,8.35
2022-10-06T09:20:05.598Z,7.85
2022-10-06T09:21:17.366Z,4.40
2022-10-06T09:23:44.117Z,6.35
2022-10-06T09:24:50.614Z,6.90
2022-10-06T09:25:57.926Z,7.87
2022-10-06T09:27:12.965Z,6.55
2022-10-06T09:28:16.822Z,5.85
2022-10-06T09:29:19.756Z,10.10
2022-10-06T09:30:22.994Z,7.75
2022-10-06T09:31:40.473Z,7.30
2022-10-06T09:33:00.245Z,8.75
2022-10-06T09:34:12.767Z,5.65
2022-10-06T09:35:21.897Z,6.93
2022-10-06T09:36:24.746Z,5.43
2022-10-06T09:37:27.925Z,7.10
2022-10-06T09:38:49.046Z,6.50
2022-10-06T09:39:53.513Z,5.70
2022-10-06T09:40:56.515Z,8.27
2022-10-06T09:42:03.735Z,6.30
2022-10-06T09:43:19.336Z,7.32
2022-10-06T09:44:25.224Z,6.75
2022-10-06T09:45:29.391Z,8.18
2022-10-06T09:46:41.938Z,8.38
2022-10-06T09:47:45.905Z,8.02
2022-10-06T09:48:48.826Z,8.15
2022-10-06T09:50:28.177Z,6.03
2022-10-06T09:51:34.135Z,7.18
2022-10-06T09:52:36.938Z,7.15
2022-10-06T09:53:39.997Z,6.25
2022-10-06T09:54:43.946Z,7.18
2022-10-06T09:55:55.417Z,6.50
2022-10-06T09:56:59.545Z,7.25
2022-10-06T09:58:03.112Z,8.02
2022-10-06T09:59:18.725Z,6.57
2022-10-06T10:00:36.133Z,6.45
2022-10-06T10:01:38.908Z,8.93
2022-10-06T10:02:42.173Z,7.97
2022-10-06T10:04:15.611Z,8.23
2022-10-06T10:05:22.651Z,7.55
2022-10-06T10:06:30.543Z,8.43
2022-10-06T10:07:35.270Z,7.15
2022-10-06T10:08:38.088Z,10.18
2022-10-06T10:09:44.015Z,8.95
2022-10-06T10:10:46.667Z,10.38
2022-10-06T10:12:24.704Z,8.93
2022-10-06T10:13:29.585Z,9.95
2022-10-06T10:14:38.907Z,9.60
2022-10-06T10:15:52.578Z,4.95
2022-10-06T10:16:55.336Z,4.87
2022-10-06T10:18:01.475Z,5.30
2022-10-06T10:19:07.058Z,6.15
2022-10-06T10:20:29.899Z,5.95
2022-10-06T10:21:35.285Z,7.93
2022-10-06T10:22:41.094Z,6.18
2022-10-06T10:23:57.425Z,6.15
2022-10-06T10:25:07.238Z,7.32
2022-10-06T10:26:29.177Z,6.80
2022-10-06T10:29:15.292Z,9.45
2022-10-06T10:30:18.726Z,4.47
2022-10-06T10:31:32.538Z,6.22
2022-10-06T10:33:18.905Z,4.60
2022-10-06T10:34:33.806Z,4.28
2022-10-06T10:35:41.887Z,5.57
2022-10-06T10:36:52.505Z,5.75
2022-10-06T10:37:55.166Z,5.40
2022-10-06T10:38:58.915Z,4.97
2022-10-06T10:40:43.324Z,5.32
2022-10-06T10:41:51.135Z,9.75
2022-10-06T10:43:12.557Z,3.80
2022-10-06T10:44:36.106Z,5.45
2022-10-06T10:45:48.786Z,5.18
2022-10-06T10:47:01.665Z,6.35
2022-10-06T10:48:15.785Z,6.07
2022-10-06T10:49:28.545Z,5.35
2022-10-06T10:50:39.546Z,5.90
2022-10-06T10:51:50.515Z,8.10
2022-10-06T10:52:59.906Z,4.47
2022-10-06T10:54:17.085Z,5.72
2022-10-06T10:55:28.826Z,3.92
2022-10-06T10:56:33.807Z,6.53
2022-10-06T10:57:41.585Z,7.30
2022-10-06T10:58:47.016Z,5.25
2022-10-06T10:59:55.685Z,4.97
2022-10-06T11:01:25.780Z,6.32
2022-10-06T11:02:28.940Z,8.38
2022-10-06T11:03:31.765Z,7.30
2022-10-06T11:04:37.855Z,6.60
2022-10-06T11:05:43.715Z,4.87
2022-10-06T11:06:54.474Z,3.78
2022-10-06T11:08:38.597Z,5.87
2022-10-06T11:09:49.528Z,5.90
2022-10-06T11:10:58.979Z,7.93
2022-10-06T11:12:40.485Z,6.62
2022-10-06T11:13:47.205Z,7.50
2022-10-06T11:15:01.670Z,8.48
2022-10-06T11:16:23.051Z,6.37
2022-10-06T11:17:45.505Z,8.30
2022-10-06T11:19:08.976Z,7.37
2022-10-06T11:20:23.368Z,7.32
2022-10-06T11:21:31.856Z,11.45
2022-10-06T11:22:53.077Z,6.78
2022-10-06T11:24:25.416Z,7.00
2022-10-06T11:25:41.090Z,7.65
2022-10-06T11:27:08.455Z,5.68
2022-10-06T11:28:29.175Z,6.85
2022-10-06T11:29:35.785Z,6.70
2022-10-06T11:31:01.276Z,6.57
2022-10-06T11:32:28.357Z,8.48
2022-10-06T11:33:34.006Z,8.38
2022-10-06T11:34:36.846Z,3.42
2022-10-06T11:35:43.376Z,5.37
2022-10-06T11:37:32.877Z,5.97
2022-10-06T11:38:41.987Z,4.95
2022-10-06T11:39:57.182Z,5.32
2022-10-06T11:41:38.977Z,4.47
2022-10-06T11:42:50.725Z,6.05
2022-10-06T11:44:17.745Z,4.32
2022-10-06T11:45:29.758Z,5.20
2022-10-06T11:46:49.536Z,5.90
2022-10-06T11:48:07.145Z,7.68
2022-10-06T11:49:28.509Z,5.25
2022-10-06T11:50:42.476Z,5.95
2022-10-06T11:51:45.207Z,5.12
2022-10-06T11:52:47.867Z,3.90
2022-10-06T11:53:53.309Z,6.75
2022-10-06T11:55:17.209Z,5.35
2022-10-06T11:56:19.788Z,4.72
2022-10-06T11:57:25.013Z,7.03
2022-10-06T11:58:51.208Z,5.22
2022-10-06T12:00:14.686Z,5.57
2022-10-06T12:01:35.332Z,5.87
2022-10-06T12:02:40.571Z,4.97
2022-10-06T12:03:48.654Z,5.45
2022-10-06T12:05:23.152Z,6.18
2022-10-06T12:06:44.304Z,3.28
2022-10-06T12:07:52.599Z,6.65
2022-10-06T12:08:55.298Z,6.03
2022-10-06T12:10:30.176Z,3.92
2022-10-06T12:11:43.166Z,4.35
2022-10-06T12:13:06.272Z,7.57
2022-10-06T12:17:55.064Z,6.35
2022-10-06T12:19:26.369Z,3.97
2022-10-06T12:20:48.161Z,6.37
2022-10-06T12:23:43.683Z,5.45
2022-10-06T12:25:02.439Z,10.57
2022-10-06T12:26:14.467Z,6.18
2022-10-06T12:28:49.940Z,4.82
2022-10-06T12:30:17.071Z,7.65
2022-10-06T12:31:39.982Z,7.32
2022-10-06T12:32:49.325Z,6.65
2022-10-06T12:33:52.777Z,10.20
2022-10-06T12:35:03.397Z,4.90
2022-10-06T12:36:18.256Z,4.62
2022-10-06T12:37:30.056Z,6.93
2022-10-06T12:38:43.266Z,6.30
2022-10-06T12:39:45.894Z,8.88
2022-10-06T12:40:51.393Z,5.18
2022-10-06T12:41:58.307Z,8.50
2022-10-06T12:43:54.078Z,3.95
2022-10-06T12:44:56.917Z,8.90
2022-10-06T12:46:13.256Z,7.03
2022-10-06T12:47:32.733Z,8.90
2022-10-06T12:48:44.054Z,6.00
2022-10-06T12:49:47.866Z,6.00
2022-10-06T12:50:58.244Z,7.37
2022-10-06T12:52:10.178Z,5.70
2022-10-06T12:53:20.940Z,8.90
2022-10-06T12:54:40.120Z,5.00
2022-10-06T12:55:57.033Z,7.15
2022-10-06T12:57:18.737Z,7.97
2022-10-06T12:58:32.765Z,11.75
2022-10-06T12:59:38.728Z,6.20
2022-10-06T13:00:43.614Z,5.30
2022-10-06T13:01:51.839Z,7.35
2022-10-06T13:02:57.968Z,7.35
2022-10-06T13:04:00.664Z,4.12
2022-10-06T13:05:11.619Z,5.00
2022-10-06T13:06:14.479Z,5.32
2022-10-06T13:07:22.844Z,4.57
2022-10-06T13:08:35.832Z,6.75
2022-10-06T13:09:38.750Z,5.57
2022-10-06T13:10:41.563Z,3.65
2022-10-06T13:11:44.261Z,5.57
2022-10-06T13:12:50.323Z,4.93
2022-10-06T13:14:14.216Z,8.07
2022-10-06T13:15:28.046Z,5.25
2022-10-06T13:16:39.507Z,4.90
2022-10-06T13:18:48.047Z,6.05
2022-10-06T13:19:51.983Z,6.45
2022-10-06T13:20:59.205Z,5.30
2022-10-06T13:22:03.216Z,5.03
2022-10-06T13:23:11.817Z,4.40
2022-10-06T13:24:20.762Z,6.28
2022-10-06T13:25:23.582Z,4.55
2022-10-06T13:26:34.890Z,7.93
2022-10-06T13:27:40.330Z,3.53
2022-10-06T13:28:43.745Z,6.22
2022-10-06T13:29:46.450Z,3.78
2022-10-06T13:30:54.652Z,4.82
2022-10-06T13:31:57.900Z,4.75
2022-10-06T13:33:00.882Z,6.30
2022-10-06T13:34:09.601Z,5.82
2022-10-06T13:35:13.091Z,4.15
2022-10-06T13:36:17.013Z,5.53
2022-10-06T13:37:19.916Z,5.70
2022-10-06T13:38:23.127Z,3.58
2022-10-06T13:39:31.984Z,8.25
2022-10-06T13:40:50.405Z,4.00
2022-10-06T13:42:04.672Z,6.37
2022-10-06T13:43:17.227Z,8.82
2022-10-06T13:44:20.053Z,4.65
2022-10-06T13:45:24.192Z,4.00
2022-10-06T13:46:31.314Z,8.20
2022-10-06T13:47:34.449Z,7.65
2022-10-06T13:48:42.944Z,5.15
2022-10-06T13:50:06.122Z,5.20
2022-10-06T13:51:25.841Z,7.85
2022-10-06T13:52:39.596Z,3.80
2022-10-06T13:53:45.285Z,4.68
2022-10-06T13:54:57.012Z,7.90
2022-10-06T13:56:00.106Z,3.90
2022-10-06T13:57:02.786Z,4.90
2022-10-06T13:58:09.556Z,3.95
2022-10-06T13:59:16.301Z,4.75
2022-10-06T14:00:32.962Z,6.82
2022-10-06T14:01:35.728Z,3.72
2022-10-06T14:02:38.541Z,6.25
2022-10-06T14:03:41.400Z,4.50
2022-10-06T14:04:44.207Z,5.05
2022-10-06T14:05:47.214Z,4.47
2022-10-06T14:06:51.973Z,4.50
2022-10-06T14:07:58.651Z,3.00
2022-10-06T14:09:12.312Z,4.90
2022-10-06T14:10:21.923Z,4.32
2022-10-06T14:11:28.310Z,7.62
2022-10-06T14:12:33.027Z,5.82
2022-10-06T14:13:52.786Z,3.42
2022-10-06T14:14:55.738Z,4.12
2022-10-06T14:16:10.914Z,5.75
2022-10-06T14:17:25.917Z,4.57
2022-10-06T14:18:31.699Z,3.55
2022-10-06T14:19:40.994Z,7.35
2022-10-06T14:20:49.031Z,4.78
2022-10-06T14:21:51.801Z,5.07
2022-10-06T14:22:54.311Z,6.78
2022-10-06T14:23:57.934Z,5.43
2022-10-06T14:25:00.953Z,4.12
2022-10-06T14:26:03.708Z,6.32
2022-10-06T14:27:07.226Z,2.47
2022-10-06T14:28:10.316Z,4.95
2022-10-06T14:29:16.325Z,4.12
2022-10-06T14:30:19.040Z,6.65
2022-10-06T14:31:23.658Z,4.80
2022-10-06T14:32:26.384Z,5.12
2022-10-06T14:33:29.231Z,3.85
2022-10-06T14:34:31.848Z,2.72
2022-10-06T14:35:34.553Z,7.03
2022-10-06T14:36:37.638Z,7.60
2022-10-06T14:37:40.325Z,5.43
2022-10-06T14:38:43.018Z,7.12
2022-10-06T14:39:45.856Z,7.47
2022-10-06T14:40:48.468Z,5.87
2022-10-06T14:41:51.197Z,4.03
2022-10-06T14:42:53.811Z,5.70
2022-10-06T14:43:59.176Z,3.42
2022-10-06T14:45:02.963Z,8.38
2022-10-06T14:46:09.439Z,5.80
2022-10-06T14:47:13.141Z,5.55
2022-10-06T14:48:16.089Z,4.72
2022-10-06T14:49:19.686Z,6.22
2022-10-06T14:50:22.343Z,3.67
2022-10-06T14:51:26.725Z,6.00
2022-10-06T14:52:29.508Z,4.75
2022-10-06T14:53:32.194Z,7.18
2022-10-06T14:54:35.290Z,6.43
2022-10-06T14:55:38.008Z,4.35
2022-10-06T14:56:41.984Z,7.65
2022-10-06T14:57:44.751Z,2.95
2022-10-06T14:58:48.868Z,6.03
2022-10-06T14:59:51.644Z,3.50
2022-10-06T15:00:54.393Z,8.38
2022-10-06T15:01:57.108Z,5.45
2022-10-06T15:02:59.989Z,7.20
2022-10-06T15:04:06.791Z,4.37
2022-10-06T15:05:09.732Z,4.75
2022-10-06T15:06:31.164Z,5.05
2022-10-06T15:07:52.407Z,5.68
2022-10-06T15:08:58.209Z,6.37
2022-10-06T15:10:00.850Z,5.05
2022-10-06T15:11:03.577Z,4.05
2022-10-06T15:12:06.314Z,7.28
2022-10-06T15:13:09.478Z,3.50